createdAt,value
2022-12-12T00:04:06.337Z,9.88
2022-12-12T00:09:10.526Z,9.98
2022-12-12T00:14:15.723Z,9.80
2022-12-12T00:19:19.628Z,9.73
2022-12-12T00:24:24.094Z,9.50
2022-12-12T00:29:29.168Z,10.18
2022-12-12T00:34:32.862Z,9.65
2022-12-12T00:39:36.858Z,9.80
2022-12-12T00:44:42.290Z,9.88
2022-12-12T00:49:45.959Z,9.80
2022-12-12T00:54:49.615Z,9.63
2022-12-12T00:59:54.671Z,10.10
2022-12-12T01:04:58.466Z,9.30
2022-12-12T01:10:02.196Z,9.32
2022-12-12T01:15:09.639Z,10.65
2022-12-12T01:20:19.205Z,10.85
2022-12-12T01:25:23.163Z,10.38
2022-12-12T01:30:29.057Z,10.32
2022-12-12T01:35:33.710Z,9.50
2022-12-12T01:40:37.415Z,9.57
2022-12-12T01:46:25.759Z,10.30
2022-12-12T01:51:30.799Z,10.45
2022-12-12T01:56:35.885Z,10.20
2022-12-12T02:01:42.250Z,9.48
2022-12-12T02:06:47.164Z,9.85
2022-12-12T02:11:52.993Z,9.82
2022-12-12T02:17:30.376Z,9.93
2022-12-12T02:22:52.644Z,11.23
2022-12-12T02:28:09.697Z,9.52
2022-12-12T02:33:27.990Z,9.88
2022-12-12T02:38:40.851Z,9.88
2022-12-12T02:43:53.112Z,9.43
2022-12-12T02:49:03.074Z,10.85
2022-12-12T02:54:13.224Z,9.93
2022-12-12T02:59:25.556Z,10.07
2022-12-12T03:04:54.090Z,9.63
2022-12-12T03:10:05.626Z,9.65
2022-12-12T03:15:18.463Z,9.38
2022-12-12T03:20:27.697Z,10.40
2022-12-12T03:25:37.982Z,9.45
2022-12-12T03:30:45.212Z,10.13
2022-12-12T03:35:56.351Z,11.07
2022-12-12T03:41:03.560Z,9.93
2022-12-12T03:46:12.967Z,9.35
2022-12-12T03:51:24.692Z,9.13
2022-12-12T03:56:32.084Z,10.60
2022-12-12T04:01:40.986Z,10.55
2022-12-12T04:06:52.300Z,9.63
2022-12-12T04:12:19.141Z,10.50
2022-12-12T04:17:30.898Z,11.05
2022-12-12T04:22:57.523Z,10.02
2022-12-12T04:33:12.480Z,8.82
2022-12-12T04:38:21.931Z,9.55
2022-12-12T04:43:31.536Z,10.38
2022-12-12T04:48:43.654Z,10.18
2022-12-12T04:53:53.772Z,9.55
2022-12-12T04:58:58.686Z,9.73
2022-12-12T05:04:07.247Z,9.00
2022-12-12T05:09:13.912Z,10.15
2022-12-12T05:14:18.448Z,9.00
2022-12-12T05:19:22.142Z,10.27
2022-12-12T05:24:30.825Z,9.90
2022-12-12T05:29:34.576Z,9.98
2022-12-12T05:34:38.248Z,9.38
2022-12-12T05:39:43.644Z,8.93
2022-12-12T05:44:47.466Z,8.82
2022-12-12T05:49:51.493Z,8.40
2022-12-12T05:54:58.254Z,9.57
2022-12-12T06:00:02.172Z,7.38
2022-12-12T06:05:11.842Z,8.52
2022-12-12T06:10:17.208Z,8.32
2022-12-12T06:15:20.949Z,9.10
2022-12-12T06:20:24.757Z,9.15
2022-12-12T06:25:29.960Z,8.90
2022-12-12T06:30:33.729Z,8.80
2022-12-12T06:35:37.367Z,9.40
2022-12-12T06:40:42.502Z,8.88
2022-12-12T06:45:46.199Z,8.68
2022-12-12T06:50:49.870Z,8.43
2022-12-12T06:55:55.005Z,7.93
2022-12-12T07:00:58.658Z,7.90
2022-12-12T07:06:02.625Z,7.93
2022-12-12T07:11:09.429Z,8.60
2022-12-12T07:21:18.564Z,8.82
2022-12-12T07:26:24.847Z,9.82
2022-12-12T07:31:29.125Z,9.07
2022-12-12T07:36:32.957Z,8.93
2022-12-12T07:41:40.897Z,8.90
2022-12-12T07:46:44.805Z,8.93
2022-12-12T07:51:49.370Z,9.15
2022-12-12T07:56:54.707Z,9.05
2022-12-12T08:01:58.506Z,8.50
2022-12-12T08:07:08.082Z,8.95
2022-12-12T08:12:14.079Z,8.80
2022-12-12T08:17:17.924Z,8.25
2022-12-12T08:22:21.853Z,8.57
2022-12-12T08:27:27.215Z,8.35
2022-12-12T08:32:31.036Z,7.75
2022-12-12T08:37:35.600Z,8.63
2022-12-12T08:42:41.360Z,9.50
2022-12-12T08:47:45.012Z,8.25
2022-12-12T08:52:48.582Z,8.75
2022-12-12T08:57:53.559Z,8.27
2022-12-12T09:02:57.227Z,8.02
2022-12-12T09:08:01.103Z,9.32
2022-12-12T09:13:07.188Z,8.68
2022-12-12T09:18:10.897Z,7.83
2022-12-12T09:23:14.559Z,7.57
2022-12-12T09:28:21.851Z,8.43
2022-12-12T09:33:25.475Z,8.63
2022-12-12T09:38:29.444Z,8.68
2022-12-12T09:43:38.207Z,7.45
2022-12-12T09:48:45.596Z,8.52
2022-12-12T09:53:51.547Z,8.15
2022-12-12T09:59:00.656Z,8.70
2022-12-12T10:04:13.933Z,9.32
2022-12-12T10:09:36.128Z,8.68
2022-12-12T10:14:45.345Z,8.73
2022-12-12T10:19:51.699Z,7.68
2022-12-12T10:25:00.887Z,8.23
2022-12-12T10:30:18.283Z,7.63
2022-12-12T10:35:28.818Z,8.02
2022-12-12T10:40:45.626Z,7.68
2022-12-12T10:46:14.056Z,7.28
2022-12-12T10:51:20.754Z,7.88
2022-12-12T10:56:26.162Z,8.60
2022-12-12T11:02:07.812Z,8.93
2022-12-12T11:06:58.157Z,7.60
2022-12-12T11:12:04.338Z,7.25
2022-12-12T11:17:22.600Z,6.63
2022-12-12T11:22:26.945Z,7.03
2022-12-12T11:27:33.946Z,7.53
2022-12-12T11:42:51.285Z,6.57
2022-12-12T11:47:56.625Z,7.10
2022-12-12T11:53:01.682Z,6.55
2022-12-12T11:58:18.606Z,6.10
2022-12-12T12:03:53.203Z,6.47
2022-12-12T12:09:18.447Z,6.40
2022-12-12T12:14:32.513Z,6.40
2022-12-12T12:19:45.120Z,5.45
2022-12-12T12:25:16.821Z,6.40
2022-12-12T12:30:24.918Z,5.35
2022-12-12T12:35:32.822Z,5.68
2022-12-12T12:40:51.089Z,5.88
2022-12-12T12:45:59.967Z,5.45
2022-12-12T12:51:11.689Z,6.03
2022-12-12T12:56:26.325Z,5.97
2022-12-12T13:01:35.309Z,6.53
2022-12-12T13:06:47.319Z,6.10
2022-12-12T13:11:55.460Z,5.90
2022-12-12T13:17:06.429Z,6.05
2022-12-12T13:22:17.600Z,5.88
2022-12-12T13:27:26.366Z,5.85
2022-12-12T13:33:06.919Z,5.85
2022-12-12T13:38:20.310Z,5.93
2022-12-12T13:43:30.562Z,5.13
2022-12-12T13:48:46.774Z,5.68
2022-12-12T13:59:03.545Z,5.22
2022-12-12T14:04:07.942Z,5.50
2022-12-12T14:09:22.373Z,5.75
2022-12-12T14:14:26.509Z,6.07
2022-12-12T14:19:35.333Z,5.90
2022-12-12T14:25:29.494Z,5.93
2022-12-12T14:30:41.288Z,5.70
2022-12-12T14:35:51.992Z,5.88
2022-12-12T14:41:01.407Z,5.40
2022-12-12T14:46:06.661Z,6.55
2022-12-12T14:51:14.762Z,7.32
2022-12-12T14:56:22.796Z,6.40
2022-12-12T15:01:33.223Z,5.95
2022-12-12T15:06:39.152Z,6.35
2022-12-12T15:11:45.036Z,5.70
2022-12-12T15:16:53.099Z,5.78
2022-12-12T15:21:58.153Z,5.85
2022-12-12T15:27:05.582Z,7.03
2022-12-12T15:32:16.854Z,7.72
2022-12-12T15:37:24.199Z,8.07
2022-12-12T15:42:29.910Z,10.98
2022-12-12T15:47:33.881Z,8.85
2022-12-12T15:52:37.738Z,8.20
2022-12-12T15:57:48.087Z,8.07
2022-12-12T16:02:59.805Z,7.53
2022-12-12T16:08:32.115Z,8.90
2022-12-12T16:13:39.823Z,8.25
2022-12-12T16:18:44.162Z,9.75
2022-12-12T16:23:47.923Z,10.02
2022-12-12T16:28:52.961Z,7.70
2022-12-12T16:33:56.726Z,8.40
2022-12-12T16:39:00.431Z,8.48
2022-12-12T16:44:05.586Z,8.20
2022-12-12T16:49:15.029Z,8.52
2022-12-12T16:54:19.272Z,7.88
2022-12-12T16:59:24.635Z,7.88
2022-12-12T17:04:28.731Z,8.30
2022-12-12T17:09:32.428Z,9.40
2022-12-12T17:14:38.293Z,9.35
2022-12-12T17:19:41.937Z,9.68
2022-12-12T17:24:45.625Z,9.27
2022-12-12T17:29:51.172Z,7.30
2022-12-12T17:34:55.192Z,7.05
2022-12-12T17:39:59.121Z,7.20
2022-12-12T17:45:06.152Z,7.80
2022-12-12T17:50:11.048Z,10.70
2022-12-12T17:55:53.188Z,9.00
2022-12-12T18:00:40.373Z,9.30
2022-12-12T18:05:44.109Z,9.43
2022-12-12T18:10:47.763Z,8.13
2022-12-12T18:15:56.752Z,7.47
2022-12-12T18:21:04.748Z,7.10
2022-12-12T18:26:10.177Z,6.80
2022-12-12T18:31:15.690Z,7.72
2022-12-12T18:36:22.491Z,6.50
2022-12-12T18:41:27.406Z,6.80
2022-12-12T18:46:37.180Z,6.65
2022-12-12T18:51:44.881Z,6.30
2022-12-12T18:56:48.775Z,7.10
2022-12-12T19:01:53.971Z,7.93
2022-12-12T19:06:58.680Z,6.80
2022-12-12T19:12:02.908Z,7.32
2022-12-12T19:17:08.126Z,8.50
2022-12-12T19:22:39.867Z,8.18
2022-12-12T19:27:35.732Z,6.55
2022-12-12T19:32:40.843Z,7.80
2022-12-12T19:37:44.604Z,7.45
2022-12-12T19:42:48.286Z,6.93
2022-12-12T19:47:53.387Z,7.10
2022-12-12T19:52:57.162Z,5.93
2022-12-12T19:58:02.504Z,6.88
2022-12-12T20:03:07.609Z,8.00
2022-12-12T20:08:11.295Z,8.23
2022-12-12T20:13:15.004Z,6.97
2022-12-12T20:18:20.138Z,7.13
2022-12-12T20:23:23.914Z,8.13
2022-12-12T20:28:27.620Z,6.93
2022-12-12T20:33:32.736Z,7.18
2022-12-12T20:38:38.167Z,6.43
2022-12-12T20:43:42.260Z,6.75
2022-12-12T20:48:48.212Z,7.10
2022-12-12T20:53:55.068Z,7.57
2022-12-12T20:59:01.582Z,7.03
2022-12-12T21:04:09.575Z,6.47
2022-12-12T21:09:19.174Z,7.88
2022-12-12T21:14:28.184Z,7.30
2022-12-12T21:19:33.261Z,6.78
2022-12-12T21:24:37.116Z,6.43
2022-12-12T21:29:40.862Z,7.80
2022-12-12T21:34:45.886Z,6.75
2022-12-12T21:39:51.286Z,7.95
2022-12-12T21:44:54.996Z,7.82
2022-12-12T21:50:00.252Z,8.40
2022-12-12T21:55:04.021Z,7.88
2022-12-12T22:00:09.393Z,7.50
2022-12-12T22:05:17.776Z,8.40
2022-12-12T22:10:21.604Z,7.18
2022-12-12T22:15:25.313Z,7.03
2022-12-12T22:20:30.351Z,7.93
2022-12-12T22:25:34.650Z,7.80
2022-12-12T22:30:38.430Z,6.70
2022-12-12T22:35:43.524Z,8.05
2022-12-12T22:40:54.915Z,7.18
2022-12-12T22:46:03.021Z,6.93
2022-12-12T22:51:16.019Z,6.75
2022-12-12T22:56:19.787Z,7.55
2022-12-12T23:01:24.511Z,6.80
2022-12-12T23:06:31.275Z,7.40
2022-12-12T23:16:39.329Z,7.03
2022-12-12T23:21:44.509Z,7.72
2022-12-12T23:26:51.881Z,8.15
2022-12-12T23:31:58.714Z,7.10
2022-12-12T23:37:03.906Z,7.78
2022-12-12T23:42:07.660Z,6.80
2022-12-12T23:47:11.663Z,7.65
2022-12-12T23:52:17.532Z,7.50
2022-12-12T23:57:22.820Z,7.18
